sensor_id;sensor_type;location;lat;lon;timestamp;pressure;altitude;pressure_sealevel;temperature;humidity
18858;BME280;9558;50.178;8.370;2024-01-25T00:00:15;99264.34;;;7.22;100.00
18858;BME280;9558;50.178;8.370;2024-01-25T00:03:02;99267.25;;;7.17;100.00
18858;BME280;9558;50.178;8.370;2024-01-25T00:05:49;99265.78;;;7.15;100.00
18858;BME280;9558;50.178;8.370;2024-01-25T00:08:36;99263.56;;;7.10;100.00
18858;BME280;9558;50.178;8.370;2024-01-25T00:11:23;99270.47;;;7.09;100.00
18858;BME280;9558;50.178;8.370;2024-01-25T00:14:11;99252.72;;;7.06;100.00
18858;BME280;9558;50.178;8.370;2024-01-25T00:16:58;99255.03;;;7.09;100.00
18858;BME280;9558;50.178;8.370;2024-01-25T00:19:45;99252.84;;;7.05;100.00
18858;BME280;9558;50.178;8.370;2024-01-25T00:22:32;99256.72;;;6.99;100.00
18858;BME280;9558;50.178;8.370;2024-01-25T00:25:19;99257.00;;;6.96;100.00
18858;BME280;9558;50.178;8.370;2024-01-25T00:28:06;99256.03;;;6.97;100.00
18858;BME280;9558;50.178;8.370;2024-01-25T00:30:54;99251.13;;;6.94;100.00
18858;BME280;9558;50.178;8.370;2024-01-25T00:33:41;99249.53;;;6.93;100.00
18858;BME280;9558;50.178;8.370;2024-01-25T00:36:28;99254.66;;;6.93;100.00
18858;BME280;9558;50.178;8.370;2024-01-25T00:39:15;99253.69;;;6.94;100.00
18858;BME280;9558;50.178;8.370;2024-01-25T00:42:04;99255.84;;;6.89;100.00
18858;BME280;9558;50.178;8.370;2024-01-25T00:44:52;99258.56;;;6.87;100.00
18858;BME280;9558;50.178;8.370;2024-01-25T00:47:41;99264.31;;;6.80;100.00
18858;BME280;9558;50.178;8.370;2024-01-25T00:50:28;99269.56;;;6.78;100.00
18858;BME280;9558;50.178;8.370;2024-01-25T00:53:16;99273.44;;;6.72;100.00
18858;BME280;9558;50.178;8.370;2024-01-25T00:56:03;99269.50;;;6.68;100.00
18858;BME280;9558;50.178;8.370;2024-01-25T00:58:50;99269.75;;;6.65;100.00
18858;BME280;9558;50.178;8.370;2024-01-25T01:01:38;99273.50;;;6.61;100.00
18858;BME280;9558;50.178;8.370;2024-01-25T01:04:27;99274.41;;;6.60;100.00
18858;BME280;9558;50.178;8.370;2024-01-25T01:07:15;99273.63;;;6.60;100.00
18858;BME280;9558;50.178;8.370;2024-01-25T01:10:02;99269.06;;;6.63;100.00
18858;BME280;9558;50.178;8.370;2024-01-25T01:12:49;99278.63;;;6.61;100.00
18858;BME280;9558;50.178;8.370;2024-01-25T01:15:37;99284.13;;;6.68;100.00
18858;BME280;9558;50.178;8.370;2024-01-25T01:18:24;99291.97;;;6.66;100.00
18858;BME280;9558;50.178;8.370;2024-01-25T01:21:12;99287.25;;;6.71;100.00
18858;BME280;9558;50.178;8.370;2024-01-25T01:23:59;99290.28;;;6.77;100.00
18858;BME280;9558;50.178;8.370;2024-01-25T01:26:46;99299.66;;;6.78;100.00
18858;BME280;9558;50.178;8.370;2024-01-25T01:29:34;99293.44;;;6.80;100.00
18858;BME280;9558;50.178;8.370;2024-01-25T01:32:21;99291.66;;;6.81;100.00
18858;BME280;9558;50.178;8.370;2024-01-25T01:35:08;99282.06;;;6.83;100.00
18858;BME280;9558;50.178;8.370;2024-01-25T01:37:56;99285.34;;;6.85;100.00
18858;BME280;9558;50.178;8.370;2024-01-25T01:40:44;99288.72;;;6.85;100.00
18858;BME280;9558;50.178;8.370;2024-01-25T01:43:31;99289.31;;;6.89;100.00
18858;BME280;9558;50.178;8.370;2024-01-25T01:46:19;99293.75;;;6.87;100.00
18858;BME280;9558;50.178;8.370;2024-01-25T01:49:10;99284.16;;;6.89;100.00
18858;BME280;9558;50.178;8.370;2024-01-25T01:51:58;99286.84;;;6.87;100.00
18858;BME280;9558;50.178;8.370;2024-01-25T01:54:47;99291.03;;;6.88;100.00
18858;BME280;9558;50.178;8.370;2024-01-25T01:57:35;99292.69;;;6.89;100.00
18858;BME280;9558;50.178;8.370;2024-01-25T02:00:24;99293.50;;;6.90;100.00
18858;BME280;9558;50.178;8.370;2024-01-25T02:03:11;99296.06;;;6.90;100.00
18858;BME280;9558;50.178;8.370;2024-01-25T02:05:58;99299.81;;;6.86;100.00
18858;BME280;9558;50.178;8.370;2024-01-25T02:08:48;99300.78;;;6.85;100.00
18858;BME280;9558;50.178;8.370;2024-01-25T02:11:36;99290.25;;;6.88;100.00
18858;BME280;9558;50.178;8.370;2024-01-25T02:14:23;99295.63;;;6.85;100.00
18858;BME280;9558;50.178;8.370;2024-01-25T02:17:10;99300.53;;;6.88;100.00
18858;BME280;9558;50.178;8.370;2024-01-25T02:19:57;99283.44;;;6.87;100.00
18858;BME280;9558;50.178;8.370;2024-01-25T02:22:45;99284.16;;;6.89;100.00
18858;BME280;9558;50.178;8.370;2024-01-25T02:25:32;99291.16;;;6.87;100.00
18858;BME280;9558;50.178;8.370;2024-01-25T02:28:18;99292.34;;;6.83;100.00
18858;BME280;9558;50.178;8.370;2024-01-25T02:31:05;99298.47;;;6.82;100.00
18858;BME280;9558;50.178;8.370;2024-01-25T02:33:52;99303.16;;;6.77;100.00
18858;BME280;9558;50.178;8.370;2024-01-25T02:36:39;99297.19;;;6.76;100.00
18858;BME280;9558;50.178;8.370;2024-01-25T02:39:27;99287.97;;;6.73;100.00
18858;BME280;9558;50.178;8.370;2024-01-25T02:42:14;99292.41;;;6.71;100.00
18858;BME280;9558;50.178;8.370;2024-01-25T02:45:02;99287.97;;;6.73;100.00
18858;BME280;9558;50.178;8.370;2024-01-25T02:47:49;99297.19;;;6.76;100.00
18858;BME280;9558;50.178;8.370;2024-01-25T02:50:37;99280.66;;;6.79;100.00
18858;BME280;9558;50.178;8.370;2024-01-25T02:53:24;99286.53;;;6.81;100.00
18858;BME280;9558;50.178;8.370;2024-01-25T02:56:12;99279.63;;;6.81;100.00
18858;BME280;9558;50.178;8.370;2024-01-25T02:58:59;99282.91;;;6.83;100.00
18858;BME280;9558;50.178;8.370;2024-01-25T03:01:46;99287.09;;;6.84;100.00
18858;BME280;9558;50.178;8.370;2024-01-25T03:04:32;99279.34;;;6.84;100.00
18858;BME280;9558;50.178;8.370;2024-01-25T03:07:19;99287.66;;;6.88;100.00
18858;BME280;9558;50.178;8.370;2024-01-25T03:10:07;99294.56;;;6.87;100.00
18858;BME280;9558;50.178;8.370;2024-01-25T03:12:55;99305.34;;;6.81;100.00
18858;BME280;9558;50.178;8.370;2024-01-25T03:15:42;99300.69;;;6.75;100.00
18858;BME280;9558;50.178;8.370;2024-01-25T03:18:29;99305.50;;;6.68;100.00
18858;BME280;9558;50.178;8.370;2024-01-25T03:21:16;99309.50;;;6.61;100.00
18858;BME280;9558;50.178;8.370;2024-01-25T03:24:03;99301.34;;;6.56;100.00
18858;BME280;9558;50.178;8.370;2024-01-25T03:26:52;99312.94;;;6.50;100.00
18858;BME280;9558;50.178;8.370;2024-01-25T03:29:42;99313.41;;;6.44;100.00
18858;BME280;9558;50.178;8.370;2024-01-25T03:32:28;99322.41;;;6.38;100.00
18858;BME280;9558;50.178;8.370;2024-01-25T03:35:15;99327.66;;;6.37;100.00
18858;BME280;9558;50.178;8.370;2024-01-25T03:38:02;99332.94;;;6.35;100.00
18858;BME280;9558;50.178;8.370;2024-01-25T03:40:49;99320.31;;;6.32;100.00
18858;BME280;9558;50.178;8.370;2024-01-25T03:43:36;99326.06;;;6.25;100.00
18858;BME280;9558;50.178;8.370;2024-01-25T03:46:24;99323.63;;;6.23;100.00
18858;BME280;9558;50.178;8.370;2024-01-25T03:49:11;99326.41;;;6.20;100.00
18858;BME280;9558;50.178;8.370;2024-01-25T03:51:57;99332.03;;;6.14;100.00
18858;BME280;9558;50.178;8.370;2024-01-25T03:54:44;99336.00;;;6.07;100.00
18858;BME280;9558;50.178;8.370;2024-01-25T03:57:31;99336.47;;;6.00;100.00
18858;BME280;9558;50.178;8.370;2024-01-25T04:00:18;99337.00;;;5.93;100.00
18858;BME280;9558;50.178;8.370;2024-01-25T04:03:06;99342.50;;;5.88;100.00
18858;BME280;9558;50.178;8.370;2024-01-25T04:05:54;99348.13;;;5.82;100.00
18858;BME280;9558;50.178;8.370;2024-01-25T04:08:40;99351.84;;;5.78;100.00
18858;BME280;9558;50.178;8.370;2024-01-25T04:11:27;99347.06;;;5.73;100.00
18858;BME280;9558;50.178;8.370;2024-01-25T04:14:14;99346.56;;;5.68;100.00
18858;BME280;9558;50.178;8.370;2024-01-25T04:17:01;99353.78;;;5.63;100.00
18858;BME280;9558;50.178;8.370;2024-01-25T04:19:49;99349.00;;;5.58;100.00
18858;BME280;9558;50.178;8.370;2024-01-25T04:22:36;99356.94;;;5.55;100.00
18858;BME280;9558;50.178;8.370;2024-01-25T04:25:23;99348.63;;;5.51;100.00
18858;BME280;9558;50.178;8.370;2024-01-25T04:28:10;99350.63;;;5.48;100.00
18858;BME280;9558;50.178;8.370;2024-01-25T04:30:56;99347.56;;;5.43;100.00
18858;BME280;9558;50.178;8.370;2024-01-25T04:33:43;99344.41;;;5.39;100.00
18858;BME280;9558;50.178;8.370;2024-01-25T04:36:31;99348.25;;;5.33;100.00
18858;BME280;9558;50.178;8.370;2024-01-25T04:39:18;99361.91;;;5.34;100.00
18858;BME280;9558;50.178;8.370;2024-01-25T04:42:05;99370.44;;;5.34;100.00
18858;BME280;9558;50.178;8.370;2024-01-25T04:44:51;99376.25;;;5.36;100.00
18858;BME280;9558;50.178;8.370;2024-01-25T04:47:38;99375.81;;;5.43;100.00
18858;BME280;9558;50.178;8.370;2024-01-25T04:50:25;99376.28;;;5.48;100.00
18858;BME280;9558;50.178;8.370;2024-01-25T04:53:13;99380.84;;;5.56;100.00
18858;BME280;9558;50.178;8.370;2024-01-25T04:56:00;99381.22;;;5.62;100.00
18858;BME280;9558;50.178;8.370;2024-01-25T04:58:47;99384.97;;;5.69;100.00
18858;BME280;9558;50.178;8.370;2024-01-25T05:01:33;99390.72;;;5.73;100.00
18858;BME280;9558;50.178;8.370;2024-01-25T05:04:34;99403.69;;;5.83;100.00
18858;BME280;9558;50.178;8.370;2024-01-25T05:07:21;99407.53;;;5.88;100.00
18858;BME280;9558;50.178;8.370;2024-01-25T05:10:10;99418.00;;;5.98;100.00
18858;BME280;9558;50.178;8.370;2024-01-25T05:12:56;99420.13;;;6.04;100.00
18858;BME280;9558;50.178;8.370;2024-01-25T05:15:43;99424.56;;;6.14;100.00
18858;BME280;9558;50.178;8.370;2024-01-25T05:18:30;99430.06;;;6.20;100.00
18858;BME280;9558;50.178;8.370;2024-01-25T05:21:20;99425.50;;;6.24;100.00
18858;BME280;9558;50.178;8.370;2024-01-25T05:24:07;99423.63;;;6.26;100.00
18858;BME280;9558;50.178;8.370;2024-01-25T05:26:56;99432.03;;;6.28;100.00
18858;BME280;9558;50.178;8.370;2024-01-25T05:29:43;99426.91;;;6.28;100.00
18858;BME280;9558;50.178;8.370;2024-01-25T05:32:30;99420.34;;;6.24;100.00
18858;BME280;9558;50.178;8.370;2024-01-25T05:35:17;99426.22;;;6.26;100.00
18858;BME280;9558;50.178;8.370;2024-01-25T05:38:03;99428.06;;;6.24;100.00
18858;BME280;9558;50.178;8.370;2024-01-25T05:40:50;99426.53;;;6.21;100.00
18858;BME280;9558;50.178;8.370;2024-01-25T05:43:38;99427.72;;;6.17;100.00
18858;BME280;9558;50.178;8.370;2024-01-25T05:46:25;99416.16;;;6.12;100.00
18858;BME280;9558;50.178;8.370;2024-01-25T05:49:11;99418.94;;;6.09;100.00
18858;BME280;9558;50.178;8.370;2024-01-25T05:51:58;99426.06;;;6.05;100.00
18858;BME280;9558;50.178;8.370;2024-01-25T05:54:45;99432.47;;;5.99;100.00
18858;BME280;9558;50.178;8.370;2024-01-25T05:57:32;99421.00;;;5.92;100.00
18858;BME280;9558;50.178;8.370;2024-01-25T06:00:21;99430.91;;;5.85;100.00
18858;BME280;9558;50.178;8.370;2024-01-25T06:03:08;99422.00;;;5.78;100.00
18858;BME280;9558;50.178;8.370;2024-01-25T06:05:55;99426.78;;;5.71;100.00
18858;BME280;9558;50.178;8.370;2024-01-25T06:08:42;99436.81;;;5.63;100.00
18858;BME280;9558;50.178;8.370;2024-01-25T06:11:28;99433.06;;;5.56;100.00
18858;BME280;9558;50.178;8.370;2024-01-25T06:14:15;99436.16;;;5.48;100.00
18858;BME280;9558;50.178;8.370;2024-01-25T06:17:03;99440.09;;;5.41;100.00
18858;BME280;9558;50.178;8.370;2024-01-25T06:19:50;99444.03;;;5.34;100.00
18858;BME280;9558;50.178;8.370;2024-01-25T06:22:36;99443.75;;;5.26;100.00
18858;BME280;9558;50.178;8.370;2024-01-25T06:25:23;99451.09;;;5.19;100.00
18858;BME280;9558;50.178;8.370;2024-01-25T06:28:12;99440.53;;;5.11;100.00
18858;BME280;9558;50.178;8.370;2024-01-25T06:31:00;99439.34;;;5.04;100.00
18858;BME280;9558;50.178;8.370;2024-01-25T06:33:48;99438.25;;;4.95;100.00
18858;BME280;9558;50.178;8.370;2024-01-25T06:36:36;99441.31;;;4.87;100.00
18858;BME280;9558;50.178;8.370;2024-01-25T06:39:22;99443.53;;;4.80;100.00
18858;BME280;9558;50.178;8.370;2024-01-25T06:42:09;99438.63;;;4.77;100.00
18858;BME280;9558;50.178;8.370;2024-01-25T06:44:56;99441.69;;;4.70;100.00
18858;BME280;9558;50.178;8.370;2024-01-25T06:47:43;99436.25;;;4.61;100.00
18858;BME280;9558;50.178;8.370;2024-01-25T06:50:31;99444.50;;;4.54;100.00
18858;BME280;9558;50.178;8.370;2024-01-25T06:53:18;99448.06;;;4.51;100.00
18858;BME280;9558;50.178;8.370;2024-01-25T06:56:05;99447.97;;;4.40;100.00
18858;BME280;9558;50.178;8.370;2024-01-25T06:58:53;99443.38;;;4.32;100.00
18858;BME280;9558;50.178;8.370;2024-01-25T07:01:39;99445.53;;;4.25;100.00
18858;BME280;9558;50.178;8.370;2024-01-25T07:04:26;99450.16;;;4.20;100.00
18858;BME280;9558;50.178;8.370;2024-01-25T07:07:14;99445.31;;;4.15;100.00
18858;BME280;9558;50.178;8.370;2024-01-25T07:10:01;99452.41;;;4.12;100.00
18858;BME280;9558;50.178;8.370;2024-01-25T07:12:48;99456.00;;;4.09;100.00
18858;BME280;9558;50.178;8.370;2024-01-25T07:15:34;99467.47;;;4.04;100.00
18858;BME280;9558;50.178;8.370;2024-01-25T07:18:21;99472.06;;;3.98;100.00
18858;BME280;9558;50.178;8.370;2024-01-25T07:21:09;99470.63;;;3.94;100.00
18858;BME280;9558;50.178;8.370;2024-01-25T07:23:59;99470.09;;;3.89;100.00
18858;BME280;9558;50.178;8.370;2024-01-25T07:26:46;99467.56;;;3.89;100.00
18858;BME280;9558;50.178;8.370;2024-01-25T07:29:33;99462.44;;;3.89;100.00
18858;BME280;9558;50.178;8.370;2024-01-25T07:32:19;99461.50;;;3.90;100.00
18858;BME280;9558;50.178;8.370;2024-01-25T07:35:06;99470.81;;;3.91;100.00
18858;BME280;9558;50.178;8.370;2024-01-25T07:37:53;99464.69;;;3.94;100.00
18858;BME280;9558;50.178;8.370;2024-01-25T07:40:41;99450.97;;;3.95;100.00
18858;BME280;9558;50.178;8.370;2024-01-25T07:43:28;99456.69;;;3.98;100.00
18858;BME280;9558;50.178;8.370;2024-01-25T07:46:15;99470.03;;;4.04;100.00
18858;BME280;9558;50.178;8.370;2024-01-25T07:49:01;99473.13;;;4.09;100.00
18858;BME280;9558;50.178;8.370;2024-01-25T07:51:48;99474.34;;;4.16;100.00
18858;BME280;9558;50.178;8.370;2024-01-25T07:54:35;99474.13;;;4.19;100.00
18858;BME280;9558;50.178;8.370;2024-01-25T07:57:23;99473.72;;;4.25;100.00
18858;BME280;9558;50.178;8.370;2024-01-25T08:00:11;99466.56;;;4.30;100.00
18858;BME280;9558;50.178;8.370;2024-01-25T08:02:57;99471.25;;;4.37;100.00
18858;BME280;9558;50.178;8.370;2024-01-25T08:05:44;99477.41;;;4.47;100.00
18858;BME280;9558;50.178;8.370;2024-01-25T08:08:31;99477.00;;;4.53;100.00
18858;BME280;9558;50.178;8.370;2024-01-25T08:11:18;99469.41;;;4.64;100.00
18858;BME280;9558;50.178;8.370;2024-01-25T08:14:07;99474.81;;;4.73;100.00
18858;BME280;9558;50.178;8.370;2024-01-25T08:16:53;99469.75;;;4.84;100.00
18858;BME280;9558;50.178;8.370;2024-01-25T08:19:41;99476.94;;;4.92;100.00
18858;BME280;9558;50.178;8.370;2024-01-25T08:22:28;99479.66;;;5.01;100.00
18858;BME280;9558;50.178;8.370;2024-01-25T08:25:15;99475.78;;;5.09;100.00
18858;BME280;9558;50.178;8.370;2024-01-25T08:28:02;99486.06;;;5.20;100.00
18858;BME280;9558;50.178;8.370;2024-01-25T08:30:50;99486.81;;;5.22;100.00
18858;BME280;9558;50.178;8.370;2024-01-25T08:33:38;99496.84;;;5.25;100.00
18858;BME280;9558;50.178;8.370;2024-01-25T08:36:27;99500.19;;;5.39;100.00
18858;BME280;9558;50.178;8.370;2024-01-25T08:39:13;99505.31;;;5.63;100.00
18858;BME280;9558;50.178;8.370;2024-01-25T08:42:01;99502.41;;;5.92;100.00
18858;BME280;9558;50.178;8.370;2024-01-25T08:44:51;99507.75;;;6.24;100.00
18858;BME280;9558;50.178;8.370;2024-01-25T08:47:39;99508.41;;;6.62;100.00
18858;BME280;9558;50.178;8.370;2024-01-25T08:50:26;99511.78;;;6.96;100.00
18858;BME280;9558;50.178;8.370;2024-01-25T08:53:12;99512.19;;;7.24;100.00
18858;BME280;9558;50.178;8.370;2024-01-25T08:55:59;99516.13;;;7.51;100.00
18858;BME280;9558;50.178;8.370;2024-01-25T08:58:50;99518.25;;;7.78;100.00
18858;BME280;9558;50.178;8.370;2024-01-25T09:01:40;99521.78;;;7.98;100.00
18858;BME280;9558;50.178;8.370;2024-01-25T09:04:32;99526.50;;;8.14;100.00
18858;BME280;9558;50.178;8.370;2024-01-25T09:07:19;99522.41;;;8.33;100.00
18858;BME280;9558;50.178;8.370;2024-01-25T09:10:07;99522.84;;;8.38;100.00
18858;BME280;9558;50.178;8.370;2024-01-25T09:12:54;99517.06;;;8.45;100.00
18858;BME280;9558;50.178;8.370;2024-01-25T09:15:41;99516.13;;;8.46;100.00
18858;BME280;9558;50.178;8.370;2024-01-25T09:18:29;99508.41;;;8.46;100.00
18858;BME280;9558;50.178;8.370;2024-01-25T09:21:17;99514.94;;;8.51;100.00
18858;BME280;9558;50.178;8.370;2024-01-25T09:24:04;99517.50;;;8.51;100.00
18858;BME280;9558;50.178;8.370;2024-01-25T09:26:51;99513.03;;;8.53;100.00
18858;BME280;9558;50.178;8.370;2024-01-25T09:29:38;99520.78;;;8.53;100.00
18858;BME280;9558;50.178;8.370;2024-01-25T09:32:25;99513.72;;;8.55;100.00
18858;BME280;9558;50.178;8.370;2024-01-25T09:35:12;99517.00;;;8.57;100.00
18858;BME280;9558;50.178;8.370;2024-01-25T09:38:00;99513.47;;;8.58;100.00
18858;BME280;9558;50.178;8.370;2024-01-25T09:40:47;99516.19;;;8.56;100.00
18858;BME280;9558;50.178;8.370;2024-01-25T09:43:35;99525.31;;;8.60;100.00
18858;BME280;9558;50.178;8.370;2024-01-25T09:46:23;99526.25;;;8.59;100.00
18858;BME280;9558;50.178;8.370;2024-01-25T09:49:10;99533.06;;;8.60;100.00
18858;BME280;9558;50.178;8.370;2024-01-25T09:51:57;99540.91;;;8.59;100.00
18858;BME280;9558;50.178;8.370;2024-01-25T09:54:50;99549.34;;;8.61;100.00
18858;BME280;9558;50.178;8.370;2024-01-25T09:57:41;99551.53;;;8.65;100.00
18858;BME280;9558;50.178;8.370;2024-01-25T10:00:31;99550.72;;;8.65;100.00
18858;BME280;9558;50.178;8.370;2024-01-25T10:03:18;99550.72;;;8.65;100.00
18858;BME280;9558;50.178;8.370;2024-01-25T10:06:06;99539.19;;;8.69;100.00
18858;BME280;9558;50.178;8.370;2024-01-25T10:08:53;99540.41;;;8.65;100.00
18858;BME280;9558;50.178;8.370;2024-01-25T10:11:42;99539.06;;;8.71;100.00
18858;BME280;9558;50.178;8.370;2024-01-25T10:14:31;99536.34;;;8.72;100.00
18858;BME280;9558;50.178;8.370;2024-01-25T10:17:17;99550.78;;;8.75;100.00
18858;BME280;9558;50.178;8.370;2024-01-25T10:20:05;99553.75;;;8.80;100.00
18858;BME280;9558;50.178;8.370;2024-01-25T10:22:56;99552.97;;;8.79;100.00
18858;BME280;9558;50.178;8.370;2024-01-25T10:25:43;99548.06;;;8.76;98.67
18858;BME280;9558;50.178;8.370;2024-01-25T10:28:31;99539.78;;;8.82;99.50
18858;BME280;9558;50.178;8.370;2024-01-25T10:31:18;99539.78;;;8.82;99.61
18858;BME280;9558;50.178;8.370;2024-01-25T10:34:05;99536.94;;;8.86;99.55
18858;BME280;9558;50.178;8.370;2024-01-25T10:36:53;99543.75;;;8.87;93.94
18858;BME280;9558;50.178;8.370;2024-01-25T10:39:41;99547.44;;;8.94;95.81
18858;BME280;9558;50.178;8.370;2024-01-25T10:42:28;99561.47;;;9.01;97.25
18858;BME280;9558;50.178;8.370;2024-01-25T10:45:16;99563.25;;;9.01;95.14
18858;BME280;9558;50.178;8.370;2024-01-25T10:48:04;99561.78;;;9.08;96.35
18858;BME280;9558;50.178;8.370;2024-01-25T10:50:51;99565.16;;;9.08;93.08
18858;BME280;9558;50.178;8.370;2024-01-25T10:53:38;99547.63;;;9.02;93.37
18858;BME280;9558;50.178;8.370;2024-01-25T10:56:26;99549.78;;;9.07;94.95
18858;BME280;9558;50.178;8.370;2024-01-25T10:59:13;99543.56;;;9.09;94.86
18858;BME280;9558;50.178;8.370;2024-01-25T11:02:03;99542.34;;;9.13;94.31
18858;BME280;9558;50.178;8.370;2024-01-25T11:04:53;99546.31;;;9.18;91.36
18858;BME280;9558;50.178;8.370;2024-01-25T11:07:41;99548.88;;;9.18;90.42
18858;BME280;9558;50.178;8.370;2024-01-25T11:10:34;99539.50;;;9.16;91.21
18858;BME280;9558;50.178;8.370;2024-01-25T11:13:24;99543.28;;;9.12;89.18
18858;BME280;9558;50.178;8.370;2024-01-25T11:16:14;99545.47;;;9.17;91.38
18858;BME280;9558;50.178;8.370;2024-01-25T11:19:04;99542.75;;;9.19;90.28
18858;BME280;9558;50.178;8.370;2024-01-25T11:21:52;99533.25;;;9.19;89.84
18858;BME280;9558;50.178;8.370;2024-01-25T11:24:39;99541.41;;;9.24;91.24
18858;BME280;9558;50.178;8.370;2024-01-25T11:27:27;99523.63;;;9.31;90.96
18858;BME280;9558;50.178;8.370;2024-01-25T11:30:17;99519.13;;;9.33;90.14
18858;BME280;9558;50.178;8.370;2024-01-25T11:33:04;99510.16;;;9.37;88.94
18858;BME280;9558;50.178;8.370;2024-01-25T11:35:55;99509.66;;;9.43;90.38
18858;BME280;9558;50.178;8.370;2024-01-25T11:38:42;99524.59;;;9.49;89.93
18858;BME280;9558;50.178;8.370;2024-01-25T11:41:30;99522.69;;;9.51;89.10
18858;BME280;9558;50.178;8.370;2024-01-25T11:44:17;99511.56;;;9.61;90.36
18858;BME280;9558;50.178;8.370;2024-01-25T11:47:04;99509.50;;;9.64;88.68
18858;BME280;9558;50.178;8.370;2024-01-25T11:49:51;99511.28;;;9.64;83.02
18858;BME280;9558;50.178;8.370;2024-01-25T11:52:39;99515.88;;;9.70;87.25
18858;BME280;9558;50.178;8.370;2024-01-25T11:55:26;99502.81;;;9.72;84.84
18858;BME280;9558;50.178;8.370;2024-01-25T11:58:13;99508.13;;;9.70;83.61
18858;BME280;9558;50.178;8.370;2024-01-25T12:01:00;99507.88;;;9.73;85.91
18858;BME280;9558;50.178;8.370;2024-01-25T12:03:49;99501.47;;;9.77;86.85
18858;BME280;9558;50.178;8.370;2024-01-25T12:06:36;99499.44;;;9.81;87.15
18858;BME280;9558;50.178;8.370;2024-01-25T12:09:25;99503.66;;;9.82;87.76
18858;BME280;9558;50.178;8.370;2024-01-25T12:12:11;99488.97;;;9.82;87.46
18858;BME280;9558;50.178;8.370;2024-01-25T12:14:58;99486.78;;;9.78;85.03
18858;BME280;9558;50.178;8.370;2024-01-25T12:17:45;99475.88;;;9.84;84.78
18858;BME280;9558;50.178;8.370;2024-01-25T12:20:35;99466.09;;;9.88;86.30
18858;BME280;9558;50.178;8.370;2024-01-25T12:23:22;99456.56;;;9.88;85.46
18858;BME280;9558;50.178;8.370;2024-01-25T12:26:10;99467.47;;;9.92;84.64
18858;BME280;9558;50.178;8.370;2024-01-25T12:28:59;99468.53;;;9.89;82.38
18858;BME280;9558;50.178;8.370;2024-01-25T12:31:46;99459.69;;;9.92;81.30
18858;BME280;9558;50.178;8.370;2024-01-25T12:34:33;99451.09;;;10.01;83.64
18858;BME280;9558;50.178;8.370;2024-01-25T12:37:20;99443.97;;;10.13;83.73
18858;BME280;9558;50.178;8.370;2024-01-25T12:40:07;99446.53;;;10.23;83.30
18858;BME280;9558;50.178;8.370;2024-01-25T12:42:56;99441.78;;;10.28;81.57
18858;BME280;9558;50.178;8.370;2024-01-25T12:45:43;99436.03;;;10.34;83.10
18858;BME280;9558;50.178;8.370;2024-01-25T12:48:30;99435.47;;;10.40;79.66
18858;BME280;9558;50.178;8.370;2024-01-25T12:51:17;99439.50;;;10.52;82.28
18858;BME280;9558;50.178;8.370;2024-01-25T12:54:04;99432.81;;;10.60;81.04
18858;BME280;9558;50.178;8.370;2024-01-25T12:56:51;99430.91;;;10.62;75.11
18858;BME280;9558;50.178;8.370;2024-01-25T12:59:39;99426.91;;;10.67;77.72
18858;BME280;9558;50.178;8.370;2024-01-25T13:02:26;99437.19;;;10.77;79.83
18858;BME280;9558;50.178;8.370;2024-01-25T13:05:13;99429.59;;;10.76;73.70
18858;BME280;9558;50.178;8.370;2024-01-25T13:08:00;99428.56;;;10.86;78.67
18858;BME280;9558;50.178;8.370;2024-01-25T13:10:47;99430.88;;;10.89;78.79
18858;BME280;9558;50.178;8.370;2024-01-25T13:13:34;99429.22;;;10.88;74.96
18858;BME280;9558;50.178;8.370;2024-01-25T13:16:22;99423.63;;;10.93;78.37
18858;BME280;9558;50.178;8.370;2024-01-25T13:19:09;99416.97;;;10.91;78.13
18858;BME280;9558;50.178;8.370;2024-01-25T13:21:57;99395.00;;;10.95;79.38
18858;BME280;9558;50.178;8.370;2024-01-25T13:24:44;99394.63;;;10.89;76.34
18858;BME280;9558;50.178;8.370;2024-01-25T13:27:31;99401.13;;;10.94;79.04
18858;BME280;9558;50.178;8.370;2024-01-25T13:30:17;99406.31;;;10.94;79.17
18858;BME280;9558;50.178;8.370;2024-01-25T13:33:06;99403.63;;;10.85;75.29
18858;BME280;9558;50.178;8.370;2024-01-25T13:35:53;99403.19;;;10.90;77.59
18858;BME280;9558;50.178;8.370;2024-01-25T13:38:39;99410.75;;;10.83;75.98
18858;BME280;9558;50.178;8.370;2024-01-25T13:41:26;99394.91;;;10.86;78.00
18858;BME280;9558;50.178;8.370;2024-01-25T13:44:14;99383.44;;;10.89;77.76
18858;BME280;9558;50.178;8.370;2024-01-25T13:47:01;99388.38;;;10.82;73.04
18858;BME280;9558;50.178;8.370;2024-01-25T13:49:49;99396.81;;;10.84;75.70
18858;BME280;9558;50.178;8.370;2024-01-25T13:52:36;99386.09;;;10.79;75.96
18858;BME280;9558;50.178;8.370;2024-01-25T13:55:23;99385.72;;;10.74;75.03
18858;BME280;9558;50.178;8.370;2024-01-25T13:58:10;99387.56;;;10.64;74.68
18858;BME280;9558;50.178;8.370;2024-01-25T14:00:57;99394.56;;;10.53;74.42
18858;BME280;9558;50.178;8.370;2024-01-25T14:03:43;99389.00;;;10.48;76.22
18858;BME280;9558;50.178;8.370;2024-01-25T14:06:32;99381.81;;;10.42;76.20
18858;BME280;9558;50.178;8.370;2024-01-25T14:09:19;99389.56;;;10.42;75.97
18858;BME280;9558;50.178;8.370;2024-01-25T14:12:06;99385.63;;;10.38;77.26
18858;BME280;9558;50.178;8.370;2024-01-25T14:14:53;99389.19;;;10.27;76.24
18858;BME280;9558;50.178;8.370;2024-01-25T14:17:39;99381.41;;;10.27;77.17
18858;BME280;9558;50.178;8.370;2024-01-25T14:20:26;99368.63;;;10.35;77.08
18858;BME280;9558;50.178;8.370;2024-01-25T14:23:15;99362.00;;;10.23;76.21
18858;BME280;9558;50.178;8.370;2024-01-25T14:26:01;99357.34;;;10.27;77.55
18858;BME280;9558;50.178;8.370;2024-01-25T14:28:48;99357.22;;;10.18;75.10
18858;BME280;9558;50.178;8.370;2024-01-25T14:31:36;99380.81;;;10.15;78.10
18858;BME280;9558;50.178;8.370;2024-01-25T14:34:22;99387.38;;;10.00;78.59
18858;BME280;9558;50.178;8.370;2024-01-25T14:37:09;99375.16;;;10.02;79.23
18858;BME280;9558;50.178;8.370;2024-01-25T14:39:58;99373.50;;;10.01;79.19
18858;BME280;9558;50.178;8.370;2024-01-25T14:42:44;99358.56;;;9.95;79.19
18858;BME280;9558;50.178;8.370;2024-01-25T14:45:31;99363.34;;;9.90;79.31
18858;BME280;9558;50.178;8.370;2024-01-25T14:48:19;99368.09;;;9.84;79.54
18858;BME280;9558;50.178;8.370;2024-01-25T14:51:06;99371.13;;;9.70;78.20
18858;BME280;9558;50.178;8.370;2024-01-25T14:53:53;99369.81;;;9.66;79.94
18858;BME280;9558;50.178;8.370;2024-01-25T14:56:41;99378.94;;;9.60;80.58
18858;BME280;9558;50.178;8.370;2024-01-25T14:59:28;99369.41;;;9.61;80.92